createdAt,value
2023-03-02T00:01:40.288Z,9.30
2023-03-02T00:06:44.244Z,12.80
2023-03-02T00:11:48.327Z,17.70
2023-03-02T00:16:52.336Z,11.40
2023-03-02T00:21:56.488Z,6.40
2023-03-02T00:27:00.179Z,3.20
2023-03-02T00:32:07.117Z,3.30
2023-03-02T00:37:11.388Z,3.80
2023-03-02T00:42:15.074Z,3.50
2023-03-02T00:47:18.885Z,6.50
2023-03-02T00:52:22.750Z,5.00
2023-03-02T00:57:27.289Z,7.90
2023-03-02T01:02:32.673Z,7.20
2023-03-02T01:07:36.595Z,7.30
2023-03-02T01:12:40.984Z,25.00
2023-03-02T01:17:44.986Z,12.50
2023-03-02T01:22:48.832Z,9.60
2023-03-02T01:27:56.371Z,10.50
2023-03-02T01:33:00.113Z,6.80
2023-03-02T01:38:07.463Z,5.30
2023-03-02T01:43:17.053Z,3.90
2023-03-02T01:48:47.347Z,3.00
2023-03-02T01:54:01.466Z,2.50
2023-03-02T01:59:12.405Z,6.20
2023-03-02T02:12:46.649Z,8.10
2023-03-02T02:17:54.797Z,13.10
2023-03-02T02:23:49.247Z,5.10
2023-03-02T02:29:01.060Z,3.60
2023-03-02T02:34:23.055Z,4.90
2023-03-02T02:39:33.908Z,7.40
2023-03-02T02:44:37.949Z,4.50
2023-03-02T02:49:42.693Z,10.10
2023-03-02T02:54:51.622Z,7.50
2023-03-02T03:00:00.947Z,6.20
2023-03-02T03:05:05.705Z,6.70
2023-03-02T03:10:40.469Z,6.40
2023-03-02T03:15:44.501Z,4.80
2023-03-02T03:21:39.228Z,3.50
2023-03-02T03:26:43.870Z,3.00
2023-03-02T03:31:47.594Z,2.20
2023-03-02T03:37:41.602Z,4.30
2023-03-02T03:42:45.489Z,3.60
2023-03-02T03:47:49.330Z,3.30
2023-03-02T03:52:53.063Z,3.50
2023-03-02T03:58:22.571Z,3.80
2023-03-02T04:03:27.459Z,5.20
2023-03-02T04:08:31.271Z,10.50
2023-03-02T04:13:34.986Z,9.90
2023-03-02T04:18:38.809Z,10.80
2023-03-02T04:25:00.164Z,12.40
2023-03-02T04:30:05.345Z,9.60
2023-03-02T04:35:09.990Z,10.10
2023-03-02T04:40:15.802Z,4.20
2023-03-02T04:45:20.004Z,2.70
2023-03-02T04:50:24.216Z,2.60
2023-03-02T04:55:28.861Z,3.10
2023-03-02T05:00:34.656Z,16.00
2023-03-02T05:05:38.946Z,7.60
2023-03-02T05:10:42.852Z,93.10
2023-03-02T05:24:17.230Z,8.30
2023-03-02T05:29:21.534Z,8.00
2023-03-02T05:35:16.768Z,8.30
2023-03-02T06:01:33.026Z,56.50
2023-03-02T06:06:37.552Z,31.20
2023-03-02T06:18:49.842Z,9.50
2023-03-02T06:24:44.535Z,14.90
2023-03-02T06:29:48.517Z,20.40
2023-03-02T06:34:52.466Z,18.90
2023-03-02T06:39:58.255Z,27.70
2023-03-02T06:45:02.519Z,22.00
2023-03-02T06:50:07.565Z,10.20
2023-03-02T06:55:33.296Z,11.00
2023-03-02T07:01:54.964Z,8.50
2023-03-02T07:06:59.010Z,10.40
2023-03-02T07:18:56.230Z,4.50
2023-03-02T07:24:50.474Z,7.90
2023-03-02T07:30:21.584Z,12.30
2023-03-02T07:35:26.072Z,12.70
2023-03-02T07:40:55.261Z,7.20
2023-03-02T07:52:48.385Z,11.90
2023-03-02T07:57:52.543Z,15.90
2023-03-02T08:02:56.380Z,8.20
2023-03-02T08:08:00.196Z,8.70
2023-03-02T08:20:12.930Z,8.10
2023-03-02T08:25:17.099Z,3.80
2023-03-02T08:30:21.131Z,9.50
2023-03-02T08:35:26.756Z,8.70
2023-03-02T08:40:56.420Z,5.30
2023-03-02T08:47:23.070Z,5.60
2023-03-02T08:52:27.284Z,11.50
2023-03-02T08:57:48.090Z,10.20
2023-03-02T09:03:42.599Z,20.70
2023-03-02T09:16:20.689Z,8.70
2023-03-02T09:30:00.175Z,8.00
2023-03-02T09:35:55.571Z,7.40
2023-03-02T09:41:21.481Z,8.60
2023-03-02T09:53:44.906Z,7.00
2023-03-02T09:59:31.769Z,8.10
2023-03-02T10:12:26.476Z,11.60
2023-03-02T10:18:11.725Z,9.30
2023-03-02T10:23:35.366Z,7.70
2023-03-02T10:28:49.809Z,7.70
2023-03-02T10:34:28.390Z,5.80
2023-03-02T10:39:34.402Z,7.10
2023-03-02T10:44:46.229Z,5.80
2023-03-02T10:50:53.798Z,4.60
2023-03-02T11:14:38.972Z,5.50
2023-03-02T11:19:44.457Z,3.80
2023-03-02T11:24:58.971Z,4.30
2023-03-02T11:30:23.494Z,3.70
2023-03-02T11:35:44.461Z,4.70
2023-03-02T11:40:53.452Z,5.60
2023-03-02T11:49:19.537Z,4.40
2023-03-02T11:54:46.595Z,4.80
2023-03-02T11:59:52.881Z,5.20
2023-03-02T12:05:25.230Z,5.50
2023-03-02T12:10:44.012Z,4.50
2023-03-02T12:15:51.295Z,3.80
2023-03-02T12:21:39.543Z,4.60
2023-03-02T12:26:43.335Z,6.90
2023-03-02T12:31:56.077Z,8.90
2023-03-02T12:37:08.026Z,6.10
2023-03-02T12:42:44.280Z,6.10
2023-03-02T12:48:02.273Z,5.30
2023-03-02T12:53:17.798Z,5.60
2023-03-02T12:58:28.782Z,5.50
2023-03-02T13:03:32.705Z,4.80
2023-03-02T13:08:38.606Z,7.40
2023-03-02T13:13:45.670Z,11.80
2023-03-02T13:18:57.499Z,9.70
2023-03-02T13:24:02.951Z,7.70
2023-03-02T13:29:15.138Z,7.50
2023-03-02T13:34:33.516Z,7.10
2023-03-02T13:39:37.755Z,7.20
2023-03-02T13:44:41.668Z,6.90
2023-03-02T13:49:46.058Z,9.60
2023-03-02T13:54:50.194Z,10.50
2023-03-02T13:59:55.397Z,8.60
2023-03-02T14:04:59.408Z,10.40
2023-03-02T14:10:04.806Z,8.70
2023-03-02T14:15:15.680Z,8.50
2023-03-02T14:20:21.220Z,11.30
2023-03-02T14:25:25.181Z,9.00
2023-03-02T14:30:29.494Z,35.30
2023-03-02T14:35:33.758Z,12.70
2023-03-02T14:40:38.514Z,8.10
2023-03-02T14:45:42.438Z,70.80
2023-03-02T14:50:50.878Z,28.30
2023-03-02T14:55:55.321Z,14.80
2023-03-02T15:01:00.357Z,59.40
2023-03-02T15:06:08.052Z,56.60
2023-03-02T15:11:12.910Z,127.90
2023-03-02T15:16:17.934Z,108.60
2023-03-02T15:21:25.266Z,82.70
2023-03-02T15:26:29.697Z,93.60
2023-03-02T15:31:35.329Z,52.20
2023-03-02T15:36:41.783Z,109.40
2023-03-02T15:41:47.992Z,27.80
2023-03-02T15:46:58.946Z,41.40
2023-03-02T15:52:03.201Z,41.70
2023-03-02T15:57:11.625Z,22.40
2023-03-02T16:02:17.836Z,44.80
2023-03-02T16:07:21.637Z,69.30
2023-03-02T16:12:28.046Z,52.00
2023-03-02T16:17:33.530Z,42.50
2023-03-02T16:22:39.469Z,53.90
2023-03-02T16:27:48.649Z,51.40
2023-03-02T16:32:52.751Z,51.20
2023-03-02T16:37:56.700Z,38.70
2023-03-02T16:43:00.724Z,47.50
2023-03-02T16:48:06.564Z,99.00
2023-03-02T16:53:10.506Z,122.80
2023-03-02T16:58:14.774Z,97.20
2023-03-02T17:03:19.118Z,86.20
2023-03-02T17:08:23.016Z,98.30
2023-03-02T17:13:27.452Z,55.90
2023-03-02T17:18:35.449Z,40.80
2023-03-02T17:23:42.494Z,68.30
2023-03-02T17:28:46.847Z,56.50
2023-03-02T17:33:51.577Z,131.90
2023-03-02T17:38:55.298Z,110.50
2023-03-02T17:44:03.636Z,188.00
2023-03-02T17:49:07.378Z,176.20
2023-03-02T17:54:11.472Z,113.80
2023-03-02T17:59:16.263Z,148.20
2023-03-02T18:04:20.683Z,116.40
2023-03-02T18:09:24.687Z,81.40
2023-03-02T18:14:32.060Z,70.50
2023-03-02T18:19:37.849Z,74.60
2023-03-02T18:24:42.680Z,113.50
2023-03-02T18:29:46.891Z,97.00
2023-03-02T18:34:51.055Z,81.80
2023-03-02T18:39:56.464Z,57.50
2023-03-02T18:45:01.220Z,49.90
2023-03-02T18:50:06.022Z,42.90
2023-03-02T18:55:12.477Z,43.70
2023-03-02T19:00:27.369Z,103.80
2023-03-02T19:05:31.896Z,76.30
2023-03-02T19:10:39.047Z,38.50
2023-03-02T19:15:44.368Z,40.60
2023-03-02T19:20:51.564Z,42.20
2023-03-02T19:25:57.034Z,50.60
2023-03-02T19:31:09.698Z,60.90
2023-03-02T19:36:14.609Z,54.90
2023-03-02T19:41:21.529Z,44.60
2023-03-02T19:46:27.486Z,42.10
2023-03-02T19:51:33.100Z,41.00
2023-03-02T19:56:40.651Z,50.00
2023-03-02T20:01:44.990Z,51.40
2023-03-02T20:06:49.826Z,49.70
2023-03-02T20:11:54.673Z,47.90
2023-03-02T20:16:58.850Z,61.10
2023-03-02T20:22:04.072Z,63.80
2023-03-02T20:27:09.091Z,39.40
2023-03-02T20:32:14.888Z,89.90
2023-03-02T20:37:18.995Z,85.30
2023-03-02T20:42:25.490Z,67.30
2023-03-02T20:47:30.755Z,64.90
2023-03-02T20:52:35.333Z,71.50
2023-03-02T20:57:39.693Z,67.50
2023-03-02T21:02:46.147Z,52.10
2023-03-02T21:07:52.939Z,44.80
2023-03-02T21:12:56.784Z,29.80
2023-03-02T21:18:03.805Z,35.60
2023-03-02T21:23:11.491Z,47.80
2023-03-02T21:28:15.518Z,45.70
2023-03-02T21:33:19.455Z,126.30
2023-03-02T21:38:23.614Z,105.70
2023-03-02T21:43:27.637Z,82.50
2023-03-02T21:48:32.404Z,95.40
2023-03-02T21:53:38.971Z,99.00
2023-03-02T21:58:43.186Z,137.50
2023-03-02T22:03:47.108Z,111.60
2023-03-02T22:08:51.963Z,97.80
2023-03-02T22:14:00.948Z,87.40
2023-03-02T22:19:27.332Z,83.10
2023-03-02T22:24:34.106Z,104.80
2023-03-02T22:29:48.122Z,162.50
2023-03-02T22:34:56.306Z,139.00
2023-03-02T22:40:27.817Z,132.90
2023-03-02T22:45:31.951Z,97.20
2023-03-02T22:50:37.423Z,92.00
2023-03-02T22:55:43.690Z,97.10
2023-03-02T23:00:48.958Z,98.30
2023-03-02T23:05:53.597Z,92.90
2023-03-02T23:10:59.735Z,66.20
2023-03-02T23:16:26.248Z,56.90
2023-03-02T23:21:42.236Z,45.70
2023-03-02T23:26:46.182Z,56.50
2023-03-02T23:31:50.819Z,45.70
2023-03-02T23:36:54.556Z,41.50
2023-03-02T23:41:58.444Z,45.70
2023-03-02T23:47:02.411Z,28.50
2023-03-02T23:52:06.349Z,29.70
2023-03-02T23:57:10.368Z,28.20
